Terminal Aerodrome Forecast
Issued by NWS Cleveland, OH

Home | Current Version | Previous Version | Graphics & Text | Print | Product List | Glossary On
Versions: 1 2 3 4 5 6 7 8 9 10 11 12 13 14 15 16 17 18 19
286
FTUS41 KCLE 092340
TAFCAK
TAF
KCAK 092340Z 1000/1024 26011KT 1 1/2SM -SN OVC008
      TEMPO 1000/1004 3SM -SN BR OVC012
     FM100400 26014KT 6SM -SN OVC012
     FM100700 26012KT 6SM HZ OVC012
     FM101300 25012KT 5SM -SHSN OVC012
     FM101600 27012KT 2SM -SN OVC012=

USA.gov is the U.S. government's official web portal to all federal, state and local government web resources and services.